Decoded Metar for KAID (ANDERSON MUNICIP in IN, USA) (IATA:AID) | Meteo·Mobile Aviation Weather
aviador You're here:

KAID Decoded Metar

ANDERSON MUNICIP in IN, USA
Report Time2019-07-16 09:55:00
UTC Time2019-07-16 10:02:00
Flight Rules vfr VFR
Wind170° at 04 kt
W.Decomp.*RWY 18: 4.0 kt HW 0.5 kt LCW
RWY 12: 2.4 kt HW 3.2 kt RCW
Visibility9999 m
Phenomena:N/A
Clouds:Scattered 039 Hf
Scattered 048 Hf
Overcast 055 Hf
Expected CloudBase > 1,200 ft AGL from Temp-Dew spread
Ceiling5,500 ft
Temp23°C (ISA +10)
Dew Point20°C (83% RH)
QNH1017 hPa
Density Alt2,238 ft
Elevation919 ft
Report Wrong Elevation
Raw Report
KAID 160955Z AUTO 17004KT 10SM SCT039 SCT048 OVC055 23/20 A3004
RMK AO2 T02250202=

Extra information for KAID:More info

Metar Taf Metar & Taf Last 4 Metars F.Rules Stats Wind Profile Meteogram Temp Stats Airport Information Weather charts Add Link Nearby VenuesMetar ALERT Operation Metar Decoded Social comments

AIRNAV info for KAID